Terminal Aerodrome Forecast
Issued by NWS

Home | Current Version | Previous Version | Text Only | Print | Product List | Glossary Off
Versions: 1 2 3 4 5 6 7 8 9 10 11 12 13 14 15 16 17 18 19 20 21 22 23 24 25 26 27 28 29 30 31 32 33 34 35 36 37 38

000
FTUS43 KPAH 292320
TAFOWB
TAF
KOWB 292320Z 3000/3024 18006KT P6SM SCT035 BKN110
     FM301500 19010KT P6SM BKN040
      TEMPO 3022/3024 -SHRA OVC045=

USA.gov is the U.S. government's official web portal to all federal, state and local government web resources and services.